sensor_id;sensor_type;location;lat;lon;timestamp;pressure;altitude;pressure_sealevel;temperature;humidity
70133;BME280;57495;49.922;7.966;2023-09-19T00:01:30;99295.28;;;16.13;100.00
70133;BME280;57495;49.922;7.966;2023-09-19T00:03:31;99301.03;;;16.03;100.00
70133;BME280;57495;49.922;7.966;2023-09-19T00:05:34;99302.88;;;16.02;100.00
70133;BME280;57495;49.922;7.966;2023-09-19T00:07:36;99305.53;;;15.96;100.00
70133;BME280;57495;49.922;7.966;2023-09-19T00:09:37;99315.06;;;15.92;100.00
70133;BME280;57495;49.922;7.966;2023-09-19T00:11:38;99317.88;;;15.83;100.00
70133;BME280;57495;49.922;7.966;2023-09-19T00:13:39;99316.25;;;15.89;100.00
70133;BME280;57495;49.922;7.966;2023-09-19T00:15:43;99315.63;;;15.87;100.00
70133;BME280;57495;49.922;7.966;2023-09-19T00:17:49;99316.78;;;15.99;100.00
70133;BME280;57495;49.922;7.966;2023-09-19T00:19:53;99315.63;;;15.87;100.00
70133;BME280;57495;49.922;7.966;2023-09-19T00:21:54;99314.16;;;15.84;100.00
70133;BME280;57495;49.922;7.966;2023-09-19T00:23:56;99321.41;;;15.84;100.00
70133;BME280;57495;49.922;7.966;2023-09-19T00:25:58;99320.38;;;15.85;100.00
70133;BME280;57495;49.922;7.966;2023-09-19T00:28:00;99317.16;;;15.96;100.00
70133;BME280;57495;49.922;7.966;2023-09-19T00:30:02;99318.78;;;15.91;100.00
70133;BME280;57495;49.922;7.966;2023-09-19T00:32:04;99313.19;;;15.92;100.00
70133;BME280;57495;49.922;7.966;2023-09-19T00:34:10;99312.56;;;15.90;100.00
70133;BME280;57495;49.922;7.966;2023-09-19T00:36:11;99309.59;;;15.85;100.00
70133;BME280;57495;49.922;7.966;2023-09-19T00:38:13;99312.94;;;15.87;100.00
70133;BME280;57495;49.922;7.966;2023-09-19T00:40:17;99307.53;;;15.87;100.00
70133;BME280;57495;49.922;7.966;2023-09-19T00:42:19;99313.94;;;15.86;100.00
70133;BME280;57495;49.922;7.966;2023-09-19T00:44:21;99312.63;;;15.75;100.00
70133;BME280;57495;49.922;7.966;2023-09-19T00:46:23;99320.53;;;15.77;100.00
70133;BME280;57495;49.922;7.966;2023-09-19T00:48:26;99325.94;;;15.77;100.00
70133;BME280;57495;49.922;7.966;2023-09-19T00:50:30;99335.66;;;15.78;100.00
70133;BME280;57495;49.922;7.966;2023-09-19T00:52:32;99340.53;;;15.68;100.00
70133;BME280;57495;49.922;7.966;2023-09-19T00:54:34;99342.81;;;15.71;100.00
70133;BME280;57495;49.922;7.966;2023-09-19T00:56:36;99342.47;;;15.74;100.00
70133;BME280;57495;49.922;7.966;2023-09-19T00:58:40;99343.31;;;15.74;100.00
70133;BME280;57495;49.922;7.966;2023-09-19T01:00:42;99343.13;;;15.76;100.00
70133;BME280;57495;49.922;7.966;2023-09-19T01:02:45;99346.44;;;15.78;100.00
70133;BME280;57495;49.922;7.966;2023-09-19T01:04:47;99356.59;;;15.76;100.00
70133;BME280;57495;49.922;7.966;2023-09-19T01:06:50;99352.66;;;15.78;100.00
70133;BME280;57495;49.922;7.966;2023-09-19T01:08:53;99363.75;;;15.69;100.00
70133;BME280;57495;49.922;7.966;2023-09-19T01:11:01;99369.25;;;15.75;100.00
70133;BME280;57495;49.922;7.966;2023-09-19T01:13:13;99366.38;;;15.77;100.00
70133;BME280;57495;49.922;7.966;2023-09-19T01:15:28;99377.88;;;15.71;100.00
70133;BME280;57495;49.922;7.966;2023-09-19T01:17:40;99378.81;;;15.78;100.00
70133;BME280;57495;49.922;7.966;2023-09-19T01:20:16;99384.09;;;15.71;100.00
70133;BME280;57495;49.922;7.966;2023-09-19T01:22:26;99383.44;;;15.69;100.00
70133;BME280;57495;49.922;7.966;2023-09-19T01:24:55;99384.03;;;15.64;100.00
70133;BME280;57495;49.922;7.966;2023-09-19T01:27:22;99392.91;;;15.58;100.00
70133;BME280;57495;49.922;7.966;2023-09-19T01:29:33;99393.53;;;15.60;100.00
70133;BME280;57495;49.922;7.966;2023-09-19T01:31:37;99398.03;;;15.53;100.00
70133;BME280;57495;49.922;7.966;2023-09-19T01:33:54;99402.69;;;15.44;100.00
70133;BME280;57495;49.922;7.966;2023-09-19T01:35:57;99395.81;;;15.42;100.00
70133;BME280;57495;49.922;7.966;2023-09-19T01:37:58;99398.13;;;15.45;100.00
70133;BME280;57495;49.922;7.966;2023-09-19T01:40:03;99402.13;;;15.49;100.00
70133;BME280;57495;49.922;7.966;2023-09-19T01:42:24;99408.81;;;15.53;100.00
70133;BME280;57495;49.922;7.966;2023-09-19T01:44:36;99407.66;;;15.62;100.00
70133;BME280;57495;49.922;7.966;2023-09-19T01:46:43;99409.06;;;15.58;100.00
70133;BME280;57495;49.922;7.966;2023-09-19T01:48:55;99411.78;;;15.58;100.00
70133;BME280;57495;49.922;7.966;2023-09-19T01:51:00;99413.06;;;15.62;100.00
70133;BME280;57495;49.922;7.966;2023-09-19T01:53:05;99422.59;;;15.65;100.00
70133;BME280;57495;49.922;7.966;2023-09-19T01:55:10;99424.34;;;15.73;100.00
70133;BME280;57495;49.922;7.966;2023-09-19T01:57:20;99423.44;;;15.65;100.00
70133;BME280;57495;49.922;7.966;2023-09-19T01:59:25;99423.25;;;15.67;100.00
70133;BME280;57495;49.922;7.966;2023-09-19T02:01:31;99428.38;;;15.62;100.00
70133;BME280;57495;49.922;7.966;2023-09-19T02:03:36;99426.25;;;15.57;100.00
70133;BME280;57495;49.922;7.966;2023-09-19T02:05:40;99428.63;;;15.45;100.00
70133;BME280;57495;49.922;7.966;2023-09-19T02:07:41;99429.06;;;15.49;100.00
70133;BME280;57495;49.922;7.966;2023-09-19T02:09:43;99438.13;;;15.63;100.00
70133;BME280;57495;49.922;7.966;2023-09-19T02:11:44;99429.41;;;15.61;100.00
70133;BME280;57495;49.922;7.966;2023-09-19T02:13:46;99439.47;;;15.52;100.00
70133;BME280;57495;49.922;7.966;2023-09-19T02:15:48;99432.13;;;15.46;100.00
70133;BME280;57495;49.922;7.966;2023-09-19T02:17:49;99428.69;;;15.52;100.00
70133;BME280;57495;49.922;7.966;2023-09-19T02:19:51;99431.19;;;15.54;100.00
70133;BME280;57495;49.922;7.966;2023-09-19T02:21:53;99436.88;;;15.44;100.00
70133;BME280;57495;49.922;7.966;2023-09-19T02:23:54;99438.63;;;15.52;100.00
70133;BME280;57495;49.922;7.966;2023-09-19T02:25:56;99446.53;;;15.53;100.00
70133;BME280;57495;49.922;7.966;2023-09-19T02:28:00;99434.72;;;15.54;100.00
70133;BME280;57495;49.922;7.966;2023-09-19T02:30:06;99435.28;;;15.50;100.00
70133;BME280;57495;49.922;7.966;2023-09-19T02:32:08;99431.50;;;15.44;100.00
70133;BME280;57495;49.922;7.966;2023-09-19T02:34:10;99442.19;;;15.37;100.00
70133;BME280;57495;49.922;7.966;2023-09-19T02:36:13;99441.00;;;15.40;100.00
70133;BME280;57495;49.922;7.966;2023-09-19T02:38:17;99441.72;;;15.34;100.00
70133;BME280;57495;49.922;7.966;2023-09-19T02:40:24;99444.34;;;15.27;100.00
70133;BME280;57495;49.922;7.966;2023-09-19T02:42:27;99442.56;;;15.19;100.00
70133;BME280;57495;49.922;7.966;2023-09-19T02:44:29;99446.03;;;15.13;100.00
70133;BME280;57495;49.922;7.966;2023-09-19T02:46:30;99444.44;;;15.04;100.00
70133;BME280;57495;49.922;7.966;2023-09-19T02:48:32;99446.50;;;15.02;100.00
70133;BME280;57495;49.922;7.966;2023-09-19T02:50:34;99444.91;;;14.93;100.00
70133;BME280;57495;49.922;7.966;2023-09-19T02:52:37;99449.28;;;14.94;100.00
70133;BME280;57495;49.922;7.966;2023-09-19T02:54:39;99450.00;;;15.02;100.00
70133;BME280;57495;49.922;7.966;2023-09-19T02:56:40;99453.00;;;14.93;100.00
70133;BME280;57495;49.922;7.966;2023-09-19T02:58:42;99453.56;;;15.03;100.00
70133;BME280;57495;49.922;7.966;2023-09-19T03:00:44;99455.84;;;15.06;100.00
70133;BME280;57495;49.922;7.966;2023-09-19T03:02:48;99451.75;;;15.10;100.00
70133;BME280;57495;49.922;7.966;2023-09-19T03:04:49;99458.66;;;14.98;100.00
70133;BME280;57495;49.922;7.966;2023-09-19T03:06:51;99461.63;;;15.03;100.00
70133;BME280;57495;49.922;7.966;2023-09-19T03:08:58;99463.66;;;15.01;100.00
70133;BME280;57495;49.922;7.966;2023-09-19T03:11:00;99465.22;;;15.10;100.00
70133;BME280;57495;49.922;7.966;2023-09-19T03:13:01;99464.88;;;15.13;100.00
70133;BME280;57495;49.922;7.966;2023-09-19T03:15:03;99469.59;;;15.11;100.00
70133;BME280;57495;49.922;7.966;2023-09-19T03:17:04;99464.69;;;15.15;100.00
70133;BME280;57495;49.922;7.966;2023-09-19T03:19:06;99475.28;;;15.01;100.00
70133;BME280;57495;49.922;7.966;2023-09-19T03:21:10;99486.97;;;14.94;100.00
70133;BME280;57495;49.922;7.966;2023-09-19T03:23:12;99485.41;;;14.84;100.00
70133;BME280;57495;49.922;7.966;2023-09-19T03:25:15;99480.00;;;14.84;100.00
70133;BME280;57495;49.922;7.966;2023-09-19T03:27:17;99491.88;;;14.75;100.00
70133;BME280;57495;49.922;7.966;2023-09-19T03:29:19;99477.03;;;14.79;100.00
70133;BME280;57495;49.922;7.966;2023-09-19T03:31:20;99482.75;;;14.76;100.00
70133;BME280;57495;49.922;7.966;2023-09-19T03:33:22;99481.47;;;14.72;100.00
70133;BME280;57495;49.922;7.966;2023-09-19T03:35:23;99484.81;;;14.74;100.00
70133;BME280;57495;49.922;7.966;2023-09-19T03:37:25;99487.03;;;14.71;100.00
70133;BME280;57495;49.922;7.966;2023-09-19T03:39:26;99482.13;;;14.74;100.00
70133;BME280;57495;49.922;7.966;2023-09-19T03:41:28;99488.91;;;14.85;100.00
70133;BME280;57495;49.922;7.966;2023-09-19T03:43:31;99490.03;;;14.91;100.00
70133;BME280;57495;49.922;7.966;2023-09-19T03:45:33;99490.78;;;14.84;100.00
70133;BME280;57495;49.922;7.966;2023-09-19T03:47:34;99487.16;;;14.77;100.00
70133;BME280;57495;49.922;7.966;2023-09-19T03:49:36;99485.75;;;14.81;100.00
70133;BME280;57495;49.922;7.966;2023-09-19T03:51:38;99483.34;;;14.86;100.00
70133;BME280;57495;49.922;7.966;2023-09-19T03:53:41;99483.72;;;14.83;100.00
70133;BME280;57495;49.922;7.966;2023-09-19T03:55:44;99484.81;;;14.74;100.00
70133;BME280;57495;49.922;7.966;2023-09-19T03:57:49;99485.72;;;14.66;100.00
70133;BME280;57495;49.922;7.966;2023-09-19T03:59:50;99485.38;;;14.69;100.00
70133;BME280;57495;49.922;7.966;2023-09-19T04:01:53;99494.94;;;14.72;100.00
70133;BME280;57495;49.922;7.966;2023-09-19T04:03:57;99488.31;;;14.60;100.00
70133;BME280;57495;49.922;7.966;2023-09-19T04:05:58;99487.38;;;14.67;100.00
70133;BME280;57495;49.922;7.966;2023-09-19T04:08:00;99482.41;;;14.56;100.00
70133;BME280;57495;49.922;7.966;2023-09-19T04:10:01;99497.59;;;14.57;100.00
70133;BME280;57495;49.922;7.966;2023-09-19T04:12:03;99489.84;;;14.54;100.00
70133;BME280;57495;49.922;7.966;2023-09-19T04:14:07;99488.66;;;14.57;100.00
70133;BME280;57495;49.922;7.966;2023-09-19T04:16:08;99502.81;;;14.50;100.00
70133;BME280;57495;49.922;7.966;2023-09-19T04:18:10;99494.38;;;14.54;100.00
70133;BME280;57495;49.922;7.966;2023-09-19T04:20:12;99512.19;;;14.55;100.00
70133;BME280;57495;49.922;7.966;2023-09-19T04:22:14;99500.09;;;14.59;100.00
70133;BME280;57495;49.922;7.966;2023-09-19T04:24:15;99507.84;;;14.54;100.00
70133;BME280;57495;49.922;7.966;2023-09-19T04:26:19;99498.09;;;14.53;100.00
70133;BME280;57495;49.922;7.966;2023-09-19T04:28:21;99490.56;;;14.48;100.00
70133;BME280;57495;49.922;7.966;2023-09-19T04:30:24;99498.81;;;14.46;100.00
70133;BME280;57495;49.922;7.966;2023-09-19T04:32:28;99495.78;;;14.49;100.00
70133;BME280;57495;49.922;7.966;2023-09-19T04:34:30;99497.44;;;14.50;100.00
70133;BME280;57495;49.922;7.966;2023-09-19T04:36:31;99504.84;;;14.48;100.00
70133;BME280;57495;49.922;7.966;2023-09-19T04:38:33;99506.09;;;14.38;100.00
70133;BME280;57495;49.922;7.966;2023-09-19T04:40:33;99501.69;;;14.45;100.00
70133;BME280;57495;49.922;7.966;2023-09-19T04:42:35;99502.28;;;14.32;100.00
70133;BME280;57495;49.922;7.966;2023-09-19T04:44:36;99509.34;;;14.33;100.00
70133;BME280;57495;49.922;7.966;2023-09-19T04:46:40;99514.00;;;14.39;100.00
70133;BME280;57495;49.922;7.966;2023-09-19T04:48:41;99515.13;;;14.45;100.00
70133;BME280;57495;49.922;7.966;2023-09-19T04:50:43;99516.69;;;14.39;100.00
70133;BME280;57495;49.922;7.966;2023-09-19T04:52:44;99521.25;;;14.39;100.00
70133;BME280;57495;49.922;7.966;2023-09-19T04:54:50;99526.97;;;14.36;100.00
70133;BME280;57495;49.922;7.966;2023-09-19T04:56:52;99523.09;;;14.38;100.00
70133;BME280;57495;49.922;7.966;2023-09-19T04:58:54;99520.47;;;14.30;100.00
70133;BME280;57495;49.922;7.966;2023-09-19T05:00:55;99525.50;;;14.33;100.00
70133;BME280;57495;49.922;7.966;2023-09-19T05:02:58;99531.44;;;14.43;100.00
70133;BME280;57495;49.922;7.966;2023-09-19T05:04:59;99528.75;;;14.43;100.00
70133;BME280;57495;49.922;7.966;2023-09-19T05:07:00;99538.88;;;14.41;100.00
70133;BME280;57495;49.922;7.966;2023-09-19T05:09:04;99535.66;;;14.46;100.00
70133;BME280;57495;49.922;7.966;2023-09-19T05:11:05;99537.53;;;14.45;100.00
70133;BME280;57495;49.922;7.966;2023-09-19T05:13:07;99537.78;;;14.50;100.00
70133;BME280;57495;49.922;7.966;2023-09-19T05:15:08;99537.88;;;14.42;100.00
70133;BME280;57495;49.922;7.966;2023-09-19T05:17:10;99536.00;;;14.20;100.00
70133;BME280;57495;49.922;7.966;2023-09-19T05:19:12;99541.84;;;14.00;100.00
70133;BME280;57495;49.922;7.966;2023-09-19T05:21:13;99542.91;;;13.91;100.00
70133;BME280;57495;49.922;7.966;2023-09-19T05:23:15;99556.31;;;13.99;100.00
70133;BME280;57495;49.922;7.966;2023-09-19T05:25:16;99551.50;;;13.86;100.00
70133;BME280;57495;49.922;7.966;2023-09-19T05:27:18;99560.41;;;13.87;100.00
70133;BME280;57495;49.922;7.966;2023-09-19T05:29:21;99568.47;;;13.87;100.00
70133;BME280;57495;49.922;7.966;2023-09-19T05:31:22;99571.25;;;13.93;100.00
70133;BME280;57495;49.922;7.966;2023-09-19T05:33:24;99568.63;;;14.17;100.00
70133;BME280;57495;49.922;7.966;2023-09-19T05:35:26;99569.69;;;14.07;100.00
70133;BME280;57495;49.922;7.966;2023-09-19T05:37:27;99566.09;;;14.23;100.00
70133;BME280;57495;49.922;7.966;2023-09-19T05:39:29;99572.22;;;14.32;100.00
70133;BME280;57495;49.922;7.966;2023-09-19T05:41:32;99569.13;;;14.43;100.00
70133;BME280;57495;49.922;7.966;2023-09-19T05:43:34;99574.91;;;14.32;100.00
70133;BME280;57495;49.922;7.966;2023-09-19T05:45:37;99575.28;;;14.29;100.00
70133;BME280;57495;49.922;7.966;2023-09-19T05:47:40;99572.94;;;14.26;100.00
70133;BME280;57495;49.922;7.966;2023-09-19T05:49:44;99581.66;;;14.28;100.00
70133;BME280;57495;49.922;7.966;2023-09-19T05:51:47;99581.41;;;14.46;100.00
70133;BME280;57495;49.922;7.966;2023-09-19T05:53:48;99583.44;;;14.44;100.00
70133;BME280;57495;49.922;7.966;2023-09-19T05:55:50;99582.88;;;14.48;100.00
70133;BME280;57495;49.922;7.966;2023-09-19T05:57:52;99583.69;;;14.26;100.00
70133;BME280;57495;49.922;7.966;2023-09-19T05:59:54;99582.00;;;14.25;100.00
70133;BME280;57495;49.922;7.966;2023-09-19T06:01:55;99581.97;;;14.33;100.00
70133;BME280;57495;49.922;7.966;2023-09-19T06:03:57;99583.84;;;14.33;100.00
70133;BME280;57495;49.922;7.966;2023-09-19T06:06:00;99584.59;;;14.41;100.00
70133;BME280;57495;49.922;7.966;2023-09-19T06:08:04;99588.31;;;14.40;100.00
70133;BME280;57495;49.922;7.966;2023-09-19T06:10:08;99594.59;;;14.33;100.00
70133;BME280;57495;49.922;7.966;2023-09-19T06:12:10;99585.84;;;14.30;100.00
70133;BME280;57495;49.922;7.966;2023-09-19T06:14:13;99589.09;;;14.26;100.00
70133;BME280;57495;49.922;7.966;2023-09-19T06:16:17;99594.97;;;14.21;100.00
70133;BME280;57495;49.922;7.966;2023-09-19T06:18:20;99598.16;;;14.25;100.00
70133;BME280;57495;49.922;7.966;2023-09-19T06:20:22;99595.09;;;14.36;100.00
70133;BME280;57495;49.922;7.966;2023-09-19T06:22:23;99602.84;;;14.31;100.00
70133;BME280;57495;49.922;7.966;2023-09-19T06:24:27;99599.13;;;14.32;100.00
70133;BME280;57495;49.922;7.966;2023-09-19T06:26:29;99610.91;;;14.31;100.00
70133;BME280;57495;49.922;7.966;2023-09-19T06:28:31;99615.22;;;14.40;100.00
70133;BME280;57495;49.922;7.966;2023-09-19T06:30:34;99609.84;;;14.40;100.00
70133;BME280;57495;49.922;7.966;2023-09-19T06:32:35;99610.84;;;14.39;100.00
70133;BME280;57495;49.922;7.966;2023-09-19T06:34:36;99614.56;;;14.38;100.00
70133;BME280;57495;49.922;7.966;2023-09-19T06:36:38;99615.53;;;14.45;100.00
70133;BME280;57495;49.922;7.966;2023-09-19T06:38:41;99617.53;;;14.43;100.00
70133;BME280;57495;49.922;7.966;2023-09-19T06:40:43;99622.88;;;14.52;100.00
70133;BME280;57495;49.922;7.966;2023-09-19T06:42:46;99619.16;;;14.53;100.00
70133;BME280;57495;49.922;7.966;2023-09-19T06:44:48;99612.94;;;14.60;100.00
70133;BME280;57495;49.922;7.966;2023-09-19T06:46:49;99633.63;;;14.60;100.00
70133;BME280;57495;49.922;7.966;2023-09-19T06:48:51;99633.94;;;14.65;100.00
70133;BME280;57495;49.922;7.966;2023-09-19T06:50:53;99639.97;;;14.67;100.00
70133;BME280;57495;49.922;7.966;2023-09-19T06:52:55;99644.63;;;14.73;100.00
70133;BME280;57495;49.922;7.966;2023-09-19T06:54:57;99645.47;;;14.74;100.00
70133;BME280;57495;49.922;7.966;2023-09-19T06:57:00;99648.66;;;14.77;100.00
70133;BME280;57495;49.922;7.966;2023-09-19T06:59:01;99648.28;;;14.80;100.00
70133;BME280;57495;49.922;7.966;2023-09-19T07:01:06;99650.28;;;14.86;100.00
70133;BME280;57495;49.922;7.966;2023-09-19T07:03:08;99655.66;;;14.86;100.00
70133;BME280;57495;49.922;7.966;2023-09-19T07:05:11;99660.31;;;14.93;100.00
70133;BME280;57495;49.922;7.966;2023-09-19T07:07:12;99665.34;;;14.96;100.00
70133;BME280;57495;49.922;7.966;2023-09-19T07:09:14;99667.47;;;15.00;100.00
70133;BME280;57495;49.922;7.966;2023-09-19T07:11:15;99672.88;;;15.00;100.00
70133;BME280;57495;49.922;7.966;2023-09-19T07:13:18;99680.53;;;15.12;100.00
70133;BME280;57495;49.922;7.966;2023-09-19T07:15:20;99676.09;;;15.19;100.00
70133;BME280;57495;49.922;7.966;2023-09-19T07:17:23;99678.91;;;15.25;100.00
70133;BME280;57495;49.922;7.966;2023-09-19T07:19:25;99684.66;;;15.22;100.00
70133;BME280;57495;49.922;7.966;2023-09-19T07:21:28;99687.63;;;15.27;100.00
70133;BME280;57495;49.922;7.966;2023-09-19T07:23:30;99691.63;;;15.32;100.00
70133;BME280;57495;49.922;7.966;2023-09-19T07:25:35;99685.03;;;15.34;100.00
70133;BME280;57495;49.922;7.966;2023-09-19T07:27:36;99687.09;;;15.32;100.00
70133;BME280;57495;49.922;7.966;2023-09-19T07:29:38;99693.34;;;15.33;100.00
70133;BME280;57495;49.922;7.966;2023-09-19T07:31:40;99700.03;;;15.37;100.00
70133;BME280;57495;49.922;7.966;2023-09-19T07:33:42;99696.91;;;15.25;100.00
70133;BME280;57495;49.922;7.966;2023-09-19T07:35:45;99701.03;;;15.36;100.00
70133;BME280;57495;49.922;7.966;2023-09-19T07:37:47;99710.19;;;15.50;100.00
70133;BME280;57495;49.922;7.966;2023-09-19T07:39:49;99714.34;;;15.52;100.00
70133;BME280;57495;49.922;7.966;2023-09-19T07:41:51;99718.28;;;15.50;100.00
70133;BME280;57495;49.922;7.966;2023-09-19T07:43:52;99716.38;;;15.73;100.00
70133;BME280;57495;49.922;7.966;2023-09-19T07:45:56;99719.84;;;15.82;100.00
70133;BME280;57495;49.922;7.966;2023-09-19T07:47:57;99726.56;;;16.16;100.00
70133;BME280;57495;49.922;7.966;2023-09-19T07:50:00;99723.41;;;15.97;100.00
70133;BME280;57495;49.922;7.966;2023-09-19T07:52:03;99724.22;;;15.83;100.00
70133;BME280;57495;49.922;7.966;2023-09-19T07:54:03;99722.63;;;15.74;100.00
70133;BME280;57495;49.922;7.966;2023-09-19T07:56:06;99729.91;;;15.88;100.00
70133;BME280;57495;49.922;7.966;2023-09-19T07:58:08;99725.69;;;16.15;100.00
70133;BME280;57495;49.922;7.966;2023-09-19T08:00:10;99730.25;;;16.30;100.00
70133;BME280;57495;49.922;7.966;2023-09-19T08:02:13;99734.88;;;16.51;100.00
70133;BME280;57495;49.922;7.966;2023-09-19T08:04:16;99740.75;;;16.54;100.00
70133;BME280;57495;49.922;7.966;2023-09-19T08:06:19;99739.44;;;16.65;100.00
70133;BME280;57495;49.922;7.966;2023-09-19T08:08:20;99738.78;;;16.63;100.00
70133;BME280;57495;49.922;7.966;2023-09-19T08:10:22;99741.41;;;16.41;100.00
70133;BME280;57495;49.922;7.966;2023-09-19T08:12:25;99757.25;;;16.45;100.00
70133;BME280;57495;49.922;7.966;2023-09-19T08:14:27;99752.25;;;16.78;100.00
70133;BME280;57495;49.922;7.966;2023-09-19T08:16:29;99751.59;;;16.91;97.90
70133;BME280;57495;49.922;7.966;2023-09-19T08:18:32;99750.31;;;16.87;96.53
70133;BME280;57495;49.922;7.966;2023-09-19T08:20:33;99757.00;;;16.91;98.90
70133;BME280;57495;49.922;7.966;2023-09-19T08:22:36;99758.38;;;17.02;93.24
70133;BME280;57495;49.922;7.966;2023-09-19T08:24:37;99753.66;;;16.89;92.23
70133;BME280;57495;49.922;7.966;2023-09-19T08:26:39;99756.09;;;16.84;92.59
70133;BME280;57495;49.922;7.966;2023-09-19T08:28:40;99758.34;;;16.35;93.21
70133;BME280;57495;49.922;7.966;2023-09-19T08:30:42;99758.06;;;16.15;94.07
70133;BME280;57495;49.922;7.966;2023-09-19T08:32:42;99752.50;;;16.17;92.76
70133;BME280;57495;49.922;7.966;2023-09-19T08:34:45;99758.19;;;16.37;93.49
70133;BME280;57495;49.922;7.966;2023-09-19T08:36:46;99761.50;;;16.54;90.45
70133;BME280;57495;49.922;7.966;2023-09-19T08:38:48;99757.41;;;16.58;90.21
70133;BME280;57495;49.922;7.966;2023-09-19T08:40:49;99757.19;;;16.74;91.45
70133;BME280;57495;49.922;7.966;2023-09-19T08:42:52;99752.88;;;16.95;91.02
70133;BME280;57495;49.922;7.966;2023-09-19T08:44:55;99759.97;;;17.17;90.24
70133;BME280;57495;49.922;7.966;2023-09-19T08:47:07;99755.75;;;17.30;86.76
70133;BME280;57495;49.922;7.966;2023-09-19T08:49:16;99767.16;;;17.25;86.82
70133;BME280;57495;49.922;7.966;2023-09-19T08:51:27;99762.72;;;17.03;87.92
70133;BME280;57495;49.922;7.966;2023-09-19T08:53:35;99761.56;;;16.90;86.71
70133;BME280;57495;49.922;7.966;2023-09-19T08:55:43;99776.22;;;16.66;86.58
70133;BME280;57495;49.922;7.966;2023-09-19T08:57:49;99775.81;;;16.69;89.29
70133;BME280;57495;49.922;7.966;2023-09-19T08:59:51;99776.75;;;16.76;88.62
70133;BME280;57495;49.922;7.966;2023-09-19T09:01:55;99786.25;;;16.72;89.51
70133;BME280;57495;49.922;7.966;2023-09-19T09:03:58;99776.88;;;16.38;89.96
70133;BME280;57495;49.922;7.966;2023-09-19T09:05:59;99779.00;;;16.58;89.88
70133;BME280;57495;49.922;7.966;2023-09-19T09:08:05;99777.84;;;16.97;89.62
70133;BME280;57495;49.922;7.966;2023-09-19T09:10:07;99771.50;;;17.26;85.66
70133;BME280;57495;49.922;7.966;2023-09-19T09:12:11;99771.78;;;17.31;86.43
70133;BME280;57495;49.922;7.966;2023-09-19T09:14:13;99762.72;;;17.67;82.88
70133;BME280;57495;49.922;7.966;2023-09-19T09:16:15;99762.16;;;17.72;81.79
70133;BME280;57495;49.922;7.966;2023-09-19T09:18:18;99765.50;;;17.52;80.55
70133;BME280;57495;49.922;7.966;2023-09-19T09:20:20;99750.09;;;17.74;80.23
70133;BME280;57495;49.922;7.966;2023-09-19T09:22:21;99761.78;;;17.75;85.15
70133;BME280;57495;49.922;7.966;2023-09-19T09:24:28;99776.84;;;17.41;81.40
70133;BME280;57495;49.922;7.966;2023-09-19T09:26:50;99767.50;;;17.87;79.79
70133;BME280;57495;49.922;7.966;2023-09-19T09:28:53;99763.75;;;18.16;80.61
70133;BME280;57495;49.922;7.966;2023-09-19T09:30:56;99769.59;;;17.91;78.75
70133;BME280;57495;49.922;7.966;2023-09-19T09:33:07;99754.06;;;18.00;79.80
70133;BME280;57495;49.922;7.966;2023-09-19T09:35:10;99765.50;;;18.02;80.18
70133;BME280;57495;49.922;7.966;2023-09-19T09:37:14;99771.91;;;17.94;79.10
70133;BME280;57495;49.922;7.966;2023-09-19T09:39:31;99759.53;;;18.42;78.22
70133;BME280;57495;49.922;7.966;2023-09-19T09:41:36;99760.97;;;18.86;78.71
70133;BME280;57495;49.922;7.966;2023-09-19T09:43:40;99758.31;;;18.51;78.24
70133;BME280;57495;49.922;7.966;2023-09-19T09:45:42;99751.69;;;18.67;79.12
70133;BME280;57495;49.922;7.966;2023-09-19T09:47:48;99746.47;;;19.34;77.99
70133;BME280;57495;49.922;7.966;2023-09-19T09:49:56;99756.13;;;19.89;75.39
70133;BME280;57495;49.922;7.966;2023-09-19T09:52:07;99748.09;;;19.01;72.12
70133;BME280;57495;49.922;7.966;2023-09-19T09:54:18;99757.94;;;18.67;74.93
70133;BME280;57495;49.922;7.966;2023-09-19T09:56:21;99756.47;;;19.06;72.86
70133;BME280;57495;49.922;7.966;2023-09-19T09:58:23;99751.53;;;19.43;73.54
70133;BME280;57495;49.922;7.966;2023-09-19T10:00:25;99753.78;;;19.33;70.14
70133;BME280;57495;49.922;7.966;2023-09-19T10:02:35;99751.50;;;19.50;69.18
70133;BME280;57495;49.922;7.966;2023-09-19T10:04:39;99758.31;;;19.06;67.94
70133;BME280;57495;49.922;7.966;2023-09-19T10:06:51;99765.44;;;18.65;68.06
70133;BME280;57495;49.922;7.966;2023-09-19T10:08:58;99757.16;;;18.73;69.25
70133;BME280;57495;49.922;7.966;2023-09-19T10:11:15;99752.44;;;18.82;68.58
70133;BME280;57495;49.922;7.966;2023-09-19T10:13:19;99761.88;;;19.06;68.68
70133;BME280;57495;49.922;7.966;2023-09-19T10:15:24;99757.41;;;18.37;69.15
70133;BME280;57495;49.922;7.966;2023-09-19T10:17:28;99759.25;;;18.71;68.76
70133;BME280;57495;49.922;7.966;2023-09-19T10:19:36;99754.13;;;18.48;67.39
70133;BME280;57495;49.922;7.966;2023-09-19T10:21:38;99754.84;;;18.64;68.93
70133;BME280;57495;49.922;7.966;2023-09-19T10:23:42;99755.22;;;19.09;69.08
70133;BME280;57495;49.922;7.966;2023-09-19T10:25:45;99756.84;;;18.90;66.57
70133;BME280;57495;49.922;7.966;2023-09-19T10:27:47;99757.34;;;19.34;64.93
70133;BME280;57495;49.922;7.966;2023-09-19T10:29:52;99755.59;;;19.06;64.78
70133;BME280;57495;49.922;7.966;2023-09-19T10:31:57;99760.47;;;19.30;65.17
70133;BME280;57495;49.922;7.966;2023-09-19T10:34:02;99749.72;;;18.89;63.33
70133;BME280;57495;49.922;7.966;2023-09-19T10:36:05;99759.22;;;19.33;65.99
70133;BME280;57495;49.922;7.966;2023-09-19T10:38:07;99750.22;;;19.12;65.05
70133;BME280;57495;49.922;7.966;2023-09-19T10:40:10;99742.94;;;19.20;66.95
70133;BME280;57495;49.922;7.966;2023-09-19T10:42:18;99739.97;;;19.01;66.10
70133;BME280;57495;49.922;7.966;2023-09-19T10:44:23;99741.91;;;19.54;64.98
70133;BME280;57495;49.922;7.966;2023-09-19T10:46:26;99747.31;;;19.41;66.37
70133;BME280;57495;49.922;7.966;2023-09-19T10:48:28;99748.50;;;18.91;67.26